sensor_id;sensor_type;location;lat;lon;timestamp;pressure;altitude;pressure_sealevel;temperature
34023;BMP280;20673;48.980;8.138;2022-07-10T00:00:55;100801.98;;;18.51
34023;BMP280;20673;48.980;8.138;2022-07-10T00:03:22;100801.26;;;18.52
34023;BMP280;20673;48.980;8.138;2022-07-10T00:05:49;100799.32;;;18.49
34023;BMP280;20673;48.980;8.138;2022-07-10T00:08:15;100795.25;;;18.47
34023;BMP280;20673;48.980;8.138;2022-07-10T00:10:42;100790.02;;;18.43
34023;BMP280;20673;48.980;8.138;2022-07-10T00:13:08;100788.08;;;18.43
34023;BMP280;20673;48.980;8.138;2022-07-10T00:15:34;100779.47;;;18.39
34023;BMP280;20673;48.980;8.138;2022-07-10T00:18:01;100778.81;;;18.40
34023;BMP280;20673;48.980;8.138;2022-07-10T00:20:27;100773.83;;;18.40
34023;BMP280;20673;48.980;8.138;2022-07-10T00:22:53;100778.03;;;18.42
34023;BMP280;20673;48.980;8.138;2022-07-10T00:25:20;100774.00;;;18.41
34023;BMP280;20673;48.980;8.138;2022-07-10T00:27:46;100774.11;;;18.32
34023;BMP280;20673;48.980;8.138;2022-07-10T00:30:12;100774.98;;;18.23
34023;BMP280;20673;48.980;8.138;2022-07-10T00:32:39;100770.49;;;18.21
34023;BMP280;20673;48.980;8.138;2022-07-10T00:35:07;100767.75;;;18.17
34023;BMP280;20673;48.980;8.138;2022-07-10T00:37:33;100767.01;;;18.07
34023;BMP280;20673;48.980;8.138;2022-07-10T00:40:00;100768.32;;;18.01
34023;BMP280;20673;48.980;8.138;2022-07-10T00:42:27;100768.29;;;17.92
34023;BMP280;20673;48.980;8.138;2022-07-10T00:44:53;100771.69;;;17.79
34023;BMP280;20673;48.980;8.138;2022-07-10T00:47:19;100774.40;;;17.68
34023;BMP280;20673;48.980;8.138;2022-07-10T00:49:46;100771.58;;;17.61
34023;BMP280;20673;48.980;8.138;2022-07-10T00:52:17;100778.14;;;17.52
34023;BMP280;20673;48.980;8.138;2022-07-10T00:54:47;100776.47;;;17.48
34023;BMP280;20673;48.980;8.138;2022-07-10T00:57:15;100777.85;;;17.39
34023;BMP280;20673;48.980;8.138;2022-07-10T00:59:42;100775.87;;;17.40
34023;BMP280;20673;48.980;8.138;2022-07-10T01:02:09;100783.54;;;17.34
34023;BMP280;20673;48.980;8.138;2022-07-10T01:04:35;100772.97;;;17.28
34023;BMP280;20673;48.980;8.138;2022-07-10T01:07:03;100775.08;;;17.25
34023;BMP280;20673;48.980;8.138;2022-07-10T01:09:29;100779.25;;;17.22
34023;BMP280;20673;48.980;8.138;2022-07-10T01:11:59;100779.14;;;17.20
34023;BMP280;20673;48.980;8.138;2022-07-10T01:14:27;100777.23;;;17.22
34023;BMP280;20673;48.980;8.138;2022-07-10T01:16:54;100773.37;;;17.22
34023;BMP280;20673;48.980;8.138;2022-07-10T01:19:20;100773.36;;;17.26
34023;BMP280;20673;48.980;8.138;2022-07-10T01:21:47;100769.15;;;17.27
34023;BMP280;20673;48.980;8.138;2022-07-10T01:24:13;100770.49;;;17.30
34023;BMP280;20673;48.980;8.138;2022-07-10T01:26:39;100773.13;;;17.34
34023;BMP280;20673;48.980;8.138;2022-07-10T01:29:09;100778.36;;;17.37
34023;BMP280;20673;48.980;8.138;2022-07-10T01:31:36;100779.86;;;17.43
34023;BMP280;20673;48.980;8.138;2022-07-10T01:34:05;100782.70;;;17.45
34023;BMP280;20673;48.980;8.138;2022-07-10T01:36:32;100788.33;;;17.47
34023;BMP280;20673;48.980;8.138;2022-07-10T01:38:59;100792.18;;;17.47
34023;BMP280;20673;48.980;8.138;2022-07-10T01:41:26;100792.26;;;17.51
34023;BMP280;20673;48.980;8.138;2022-07-10T01:43:53;100794.26;;;17.53
34023;BMP280;20673;48.980;8.138;2022-07-10T01:46:20;100788.26;;;17.53
34023;BMP280;20673;48.980;8.138;2022-07-10T01:48:48;100791.29;;;17.51
34023;BMP280;20673;48.980;8.138;2022-07-10T01:51:15;100791.06;;;17.46
34023;BMP280;20673;48.980;8.138;2022-07-10T01:53:41;100792.17;;;17.42
34023;BMP280;20673;48.980;8.138;2022-07-10T01:56:10;100787.90;;;17.38
34023;BMP280;20673;48.980;8.138;2022-07-10T01:58:37;100790.65;;;17.29
34023;BMP280;20673;48.980;8.138;2022-07-10T02:01:06;100795.17;;;17.26
34023;BMP280;20673;48.980;8.138;2022-07-10T02:03:32;100799.86;;;17.26
34023;BMP280;20673;48.980;8.138;2022-07-10T02:06:17;100805.92;;;17.21
34023;BMP280;20673;48.980;8.138;2022-07-10T02:08:43;100810.25;;;17.19
34023;BMP280;20673;48.980;8.138;2022-07-10T02:11:10;100815.00;;;17.17
34023;BMP280;20673;48.980;8.138;2022-07-10T02:13:39;100815.89;;;17.17
34023;BMP280;20673;48.980;8.138;2022-07-10T02:16:06;100819.59;;;17.17
34023;BMP280;20673;48.980;8.138;2022-07-10T02:18:33;100816.31;;;17.14
34023;BMP280;20673;48.980;8.138;2022-07-10T02:20:59;100813.83;;;17.15
34023;BMP280;20673;48.980;8.138;2022-07-10T02:23:25;100816.57;;;17.16
34023;BMP280;20673;48.980;8.138;2022-07-10T02:25:52;100817.11;;;17.14
34023;BMP280;20673;48.980;8.138;2022-07-10T02:28:18;100814.76;;;17.15
34023;BMP280;20673;48.980;8.138;2022-07-10T02:30:44;100812.67;;;17.15
34023;BMP280;20673;48.980;8.138;2022-07-10T02:33:11;100815.31;;;17.14
34023;BMP280;20673;48.980;8.138;2022-07-10T02:35:37;100814.90;;;17.07
34023;BMP280;20673;48.980;8.138;2022-07-10T02:38:03;100812.65;;;17.03
34023;BMP280;20673;48.980;8.138;2022-07-10T02:40:30;100815.68;;;16.95
34023;BMP280;20673;48.980;8.138;2022-07-10T02:42:56;100811.08;;;16.91
34023;BMP280;20673;48.980;8.138;2022-07-10T02:45:22;100812.81;;;16.82
34023;BMP280;20673;48.980;8.138;2022-07-10T02:47:49;100818.56;;;16.71
34023;BMP280;20673;48.980;8.138;2022-07-10T02:50:16;100819.44;;;16.67
34023;BMP280;20673;48.980;8.138;2022-07-10T02:52:42;100820.87;;;16.60
34023;BMP280;20673;48.980;8.138;2022-07-10T02:55:09;100822.67;;;16.52
34023;BMP280;20673;48.980;8.138;2022-07-10T02:57:35;100822.47;;;16.49
34023;BMP280;20673;48.980;8.138;2022-07-10T03:00:03;100824.64;;;16.41
34023;BMP280;20673;48.980;8.138;2022-07-10T03:02:29;100823.42;;;16.34
34023;BMP280;20673;48.980;8.138;2022-07-10T03:04:56;100822.98;;;16.28
34023;BMP280;20673;48.980;8.138;2022-07-10T03:07:22;100822.22;;;16.20
34023;BMP280;20673;48.980;8.138;2022-07-10T03:09:48;100822.50;;;16.17
34023;BMP280;20673;48.980;8.138;2022-07-10T03:12:15;100816.04;;;16.16
34023;BMP280;20673;48.980;8.138;2022-07-10T03:14:41;100821.56;;;16.07
34023;BMP280;20673;48.980;8.138;2022-07-10T03:17:07;100818.25;;;16.04
34023;BMP280;20673;48.980;8.138;2022-07-10T03:19:34;100819.42;;;16.02
34023;BMP280;20673;48.980;8.138;2022-07-10T03:22:00;100818.08;;;15.97
34023;BMP280;20673;48.980;8.138;2022-07-10T03:24:27;100816.38;;;15.93
34023;BMP280;20673;48.980;8.138;2022-07-10T03:26:53;100816.04;;;15.91
34023;BMP280;20673;48.980;8.138;2022-07-10T03:29:19;100821.14;;;15.86
34023;BMP280;20673;48.980;8.138;2022-07-10T03:31:46;100822.30;;;15.83
34023;BMP280;20673;48.980;8.138;2022-07-10T03:34:12;100829.92;;;15.81
34023;BMP280;20673;48.980;8.138;2022-07-10T03:36:38;100833.26;;;15.78
34023;BMP280;20673;48.980;8.138;2022-07-10T03:39:05;100835.20;;;15.71
34023;BMP280;20673;48.980;8.138;2022-07-10T03:41:31;100835.28;;;15.68
34023;BMP280;20673;48.980;8.138;2022-07-10T03:43:58;100839.50;;;15.65
34023;BMP280;20673;48.980;8.138;2022-07-10T03:46:24;100842.23;;;15.67
34023;BMP280;20673;48.980;8.138;2022-07-10T03:48:50;100838.40;;;15.66
34023;BMP280;20673;48.980;8.138;2022-07-10T03:51:17;100840.95;;;15.65
34023;BMP280;20673;48.980;8.138;2022-07-10T03:53:44;100846.33;;;15.65
34023;BMP280;20673;48.980;8.138;2022-07-10T03:56:10;100842.55;;;15.65
34023;BMP280;20673;48.980;8.138;2022-07-10T03:58:39;100841.56;;;15.58
34023;BMP280;20673;48.980;8.138;2022-07-10T04:01:05;100839.33;;;15.57
34023;BMP280;20673;48.980;8.138;2022-07-10T04:03:31;100841.74;;;15.52
34023;BMP280;20673;48.980;8.138;2022-07-10T04:05:58;100842.71;;;15.54
34023;BMP280;20673;48.980;8.138;2022-07-10T04:08:24;100846.43;;;15.52
34023;BMP280;20673;48.980;8.138;2022-07-10T04:10:51;100849.09;;;15.50
34023;BMP280;20673;48.980;8.138;2022-07-10T04:13:17;100854.90;;;15.46
34023;BMP280;20673;48.980;8.138;2022-07-10T04:15:43;100850.04;;;15.47
34023;BMP280;20673;48.980;8.138;2022-07-10T04:18:10;100845.20;;;15.48
34023;BMP280;20673;48.980;8.138;2022-07-10T04:20:36;100843.00;;;15.45
34023;BMP280;20673;48.980;8.138;2022-07-10T04:23:02;100842.83;;;15.45
34023;BMP280;20673;48.980;8.138;2022-07-10T04:25:29;100836.49;;;15.50
34023;BMP280;20673;48.980;8.138;2022-07-10T04:27:55;100843.89;;;15.55
34023;BMP280;20673;48.980;8.138;2022-07-10T04:30:21;100841.56;;;15.58
34023;BMP280;20673;48.980;8.138;2022-07-10T04:32:48;100847.30;;;15.60
34023;BMP280;20673;48.980;8.138;2022-07-10T04:35:14;100844.43;;;15.64
34023;BMP280;20673;48.980;8.138;2022-07-10T04:37:41;100846.50;;;15.68
34023;BMP280;20673;48.980;8.138;2022-07-10T04:40:08;100849.15;;;15.71
34023;BMP280;20673;48.980;8.138;2022-07-10T04:42:36;100851.11;;;15.76
34023;BMP280;20673;48.980;8.138;2022-07-10T04:45:02;100844.87;;;15.79
34023;BMP280;20673;48.980;8.138;2022-07-10T04:47:28;100845.18;;;15.84
34023;BMP280;20673;48.980;8.138;2022-07-10T04:49:55;100849.16;;;15.84
34023;BMP280;20673;48.980;8.138;2022-07-10T04:52:21;100849.86;;;15.89
34023;BMP280;20673;48.980;8.138;2022-07-10T04:54:47;100851.53;;;15.89
34023;BMP280;20673;48.980;8.138;2022-07-10T04:57:14;100853.26;;;15.95
34023;BMP280;20673;48.980;8.138;2022-07-10T04:59:40;100860.37;;;16.00
34023;BMP280;20673;48.980;8.138;2022-07-10T05:02:06;100866.92;;;16.03
34023;BMP280;20673;48.980;8.138;2022-07-10T05:04:34;100863.73;;;16.06
34023;BMP280;20673;48.980;8.138;2022-07-10T05:07:00;100868.61;;;16.10
34023;BMP280;20673;48.980;8.138;2022-07-10T05:09:26;100862.17;;;16.18
34023;BMP280;20673;48.980;8.138;2022-07-10T05:11:53;100867.13;;;16.21
34023;BMP280;20673;48.980;8.138;2022-07-10T05:14:19;100874.25;;;16.31
34023;BMP280;20673;48.980;8.138;2022-07-10T05:16:45;100874.72;;;16.38
34023;BMP280;20673;48.980;8.138;2022-07-10T05:19:12;100873.68;;;16.46
34023;BMP280;20673;48.980;8.138;2022-07-10T05:21:38;100878.68;;;16.53
34023;BMP280;20673;48.980;8.138;2022-07-10T05:24:05;100876.09;;;16.55
34023;BMP280;20673;48.980;8.138;2022-07-10T05:26:32;100880.42;;;16.64
34023;BMP280;20673;48.980;8.138;2022-07-10T05:28:58;100876.59;;;16.65
34023;BMP280;20673;48.980;8.138;2022-07-10T05:31:24;100871.18;;;16.74
34023;BMP280;20673;48.980;8.138;2022-07-10T05:33:51;100876.15;;;16.82
34023;BMP280;20673;48.980;8.138;2022-07-10T05:36:17;100876.98;;;16.88
34023;BMP280;20673;48.980;8.138;2022-07-10T05:38:43;100878.83;;;16.90
34023;BMP280;20673;48.980;8.138;2022-07-10T05:41:10;100872.62;;;16.94
34023;BMP280;20673;48.980;8.138;2022-07-10T05:43:36;100881.59;;;17.03
34023;BMP280;20673;48.980;8.138;2022-07-10T05:46:03;100880.03;;;17.10
34023;BMP280;20673;48.980;8.138;2022-07-10T05:48:29;100875.62;;;17.08
34023;BMP280;20673;48.980;8.138;2022-07-10T05:50:55;100876.83;;;17.14
34023;BMP280;20673;48.980;8.138;2022-07-10T05:53:22;100880.09;;;17.22
34023;BMP280;20673;48.980;8.138;2022-07-10T05:55:49;100879.09;;;17.27
34023;BMP280;20673;48.980;8.138;2022-07-10T05:58:16;100875.09;;;17.30
34023;BMP280;20673;48.980;8.138;2022-07-10T06:00:42;100884.73;;;17.37
34023;BMP280;20673;48.980;8.138;2022-07-10T06:03:10;100885.86;;;17.42
34023;BMP280;20673;48.980;8.138;2022-07-10T06:05:37;100887.80;;;17.38
34023;BMP280;20673;48.980;8.138;2022-07-10T06:08:03;100895.97;;;17.49
34023;BMP280;20673;48.980;8.138;2022-07-10T06:10:30;100897.82;;;17.50
34023;BMP280;20673;48.980;8.138;2022-07-10T06:12:56;100904.11;;;17.52
34023;BMP280;20673;48.980;8.138;2022-07-10T06:15:23;100918.06;;;17.56
34023;BMP280;20673;48.980;8.138;2022-07-10T06:17:49;100917.90;;;17.66
34023;BMP280;20673;48.980;8.138;2022-07-10T06:20:15;100919.12;;;17.80
34023;BMP280;20673;48.980;8.138;2022-07-10T06:22:42;100924.18;;;17.94
34023;BMP280;20673;48.980;8.138;2022-07-10T06:25:09;100921.51;;;18.03
34023;BMP280;20673;48.980;8.138;2022-07-10T06:27:37;100916.66;;;18.24
34023;BMP280;20673;48.980;8.138;2022-07-10T06:30:05;100917.59;;;18.25
34023;BMP280;20673;48.980;8.138;2022-07-10T06:32:32;100919.53;;;18.14
34023;BMP280;20673;48.980;8.138;2022-07-10T06:34:58;100924.72;;;18.02
34023;BMP280;20673;48.980;8.138;2022-07-10T06:37:24;100915.81;;;18.07
34023;BMP280;20673;48.980;8.138;2022-07-10T06:39:51;100919.48;;;18.24
34023;BMP280;20673;48.980;8.138;2022-07-10T06:42:17;100918.18;;;18.30
34023;BMP280;20673;48.980;8.138;2022-07-10T06:44:44;100917.08;;;18.35
34023;BMP280;20673;48.980;8.138;2022-07-10T06:47:14;100919.42;;;18.51
34023;BMP280;20673;48.980;8.138;2022-07-10T06:49:59;100925.64;;;18.71
34023;BMP280;20673;48.980;8.138;2022-07-10T06:52:26;100923.43;;;18.73
34023;BMP280;20673;48.980;8.138;2022-07-10T06:54:53;100928.01;;;18.68
34023;BMP280;20673;48.980;8.138;2022-07-10T06:57:19;100926.65;;;18.81
34023;BMP280;20673;48.980;8.138;2022-07-10T06:59:46;100926.80;;;19.15
34023;BMP280;20673;48.980;8.138;2022-07-10T07:02:12;100925.38;;;19.14
34023;BMP280;20673;48.980;8.138;2022-07-10T07:04:39;100920.40;;;19.41
34023;BMP280;20673;48.980;8.138;2022-07-10T07:07:05;100920.53;;;19.54
34023;BMP280;20673;48.980;8.138;2022-07-10T07:09:31;100922.63;;;19.34
34023;BMP280;20673;48.980;8.138;2022-07-10T07:11:58;100928.79;;;19.41
34023;BMP280;20673;48.980;8.138;2022-07-10T07:14:24;100925.70;;;19.47
34023;BMP280;20673;48.980;8.138;2022-07-10T07:16:50;100927.47;;;19.43
34023;BMP280;20673;48.980;8.138;2022-07-10T07:19:36;100928.11;;;19.46
34023;BMP280;20673;48.980;8.138;2022-07-10T07:22:22;100925.40;;;19.27
34023;BMP280;20673;48.980;8.138;2022-07-10T07:25:09;100926.51;;;19.34
34023;BMP280;20673;48.980;8.138;2022-07-10T07:27:37;100927.17;;;19.34
34023;BMP280;20673;48.980;8.138;2022-07-10T07:30:09;100922.92;;;19.55
34023;BMP280;20673;48.980;8.138;2022-07-10T07:32:37;100937.42;;;19.67
34023;BMP280;20673;48.980;8.138;2022-07-10T07:35:05;100934.88;;;19.71
34023;BMP280;20673;48.980;8.138;2022-07-10T07:37:47;100936.64;;;19.72
34023;BMP280;20673;48.980;8.138;2022-07-10T07:40:18;100936.43;;;19.49
34023;BMP280;20673;48.980;8.138;2022-07-10T07:42:45;100937.01;;;19.65
34023;BMP280;20673;48.980;8.138;2022-07-10T07:45:12;100939.62;;;19.59
34023;BMP280;20673;48.980;8.138;2022-07-10T07:50:26;100941.84;;;19.52
34023;BMP280;20673;48.980;8.138;2022-07-10T07:52:50;100939.68;;;19.61
34023;BMP280;20673;48.980;8.138;2022-07-10T07:55:18;100936.29;;;19.54
34023;BMP280;20673;48.980;8.138;2022-07-10T07:57:45;100934.04;;;19.71
34023;BMP280;20673;48.980;8.138;2022-07-10T08:00:13;100932.72;;;19.94
34023;BMP280;20673;48.980;8.138;2022-07-10T08:02:41;100926.68;;;20.34
34023;BMP280;20673;48.980;8.138;2022-07-10T08:05:08;100924.93;;;20.31
34023;BMP280;20673;48.980;8.138;2022-07-10T08:07:41;100921.08;;;20.42
34023;BMP280;20673;48.980;8.138;2022-07-10T08:10:10;100922.31;;;20.61
34023;BMP280;20673;48.980;8.138;2022-07-10T08:12:37;100919.25;;;20.50
34023;BMP280;20673;48.980;8.138;2022-07-10T08:15:07;100918.65;;;20.34
34023;BMP280;20673;48.980;8.138;2022-07-10T08:17:34;100920.36;;;20.54
34023;BMP280;20673;48.980;8.138;2022-07-10T08:20:02;100918.33;;;20.36
34023;BMP280;20673;48.980;8.138;2022-07-10T08:22:28;100911.31;;;20.57
34023;BMP280;20673;48.980;8.138;2022-07-10T08:24:55;100912.56;;;20.67
34023;BMP280;20673;48.980;8.138;2022-07-10T08:27:23;100913.83;;;21.01
34023;BMP280;20673;48.980;8.138;2022-07-10T08:29:49;100917.88;;;21.01
34023;BMP280;20673;48.980;8.138;2022-07-10T08:32:15;100917.25;;;20.88
34023;BMP280;20673;48.980;8.138;2022-07-10T08:34:42;100913.29;;;20.82
34023;BMP280;20673;48.980;8.138;2022-07-10T08:37:08;100917.65;;;20.62
34023;BMP280;20673;48.980;8.138;2022-07-10T08:39:35;100916.04;;;20.82
34023;BMP280;20673;48.980;8.138;2022-07-10T08:42:06;100918.86;;;21.18
34023;BMP280;20673;48.980;8.138;2022-07-10T08:44:33;100917.23;;;20.76
34023;BMP280;20673;48.980;8.138;2022-07-10T08:47:02;100909.39;;;20.69
34023;BMP280;20673;48.980;8.138;2022-07-10T08:49:30;100913.11;;;20.73
34023;BMP280;20673;48.980;8.138;2022-07-10T08:52:05;100912.62;;;21.19
34023;BMP280;20673;48.980;8.138;2022-07-10T08:54:33;100909.53;;;21.71
34023;BMP280;20673;48.980;8.138;2022-07-10T08:57:02;100910.97;;;21.56
34023;BMP280;20673;48.980;8.138;2022-07-10T08:59:29;100907.47;;;21.77
34023;BMP280;20673;48.980;8.138;2022-07-10T09:01:56;100906.29;;;21.87
34023;BMP280;20673;48.980;8.138;2022-07-10T09:04:26;100912.79;;;22.16
34023;BMP280;20673;48.980;8.138;2022-07-10T09:06:54;100907.65;;;22.12
34023;BMP280;20673;48.980;8.138;2022-07-10T09:09:21;100898.71;;;22.58
34023;BMP280;20673;48.980;8.138;2022-07-10T09:11:48;100893.72;;;23.05
34023;BMP280;20673;48.980;8.138;2022-07-10T09:14:16;100898.51;;;22.55
34023;BMP280;20673;48.980;8.138;2022-07-10T09:16:45;100904.25;;;22.21
34023;BMP280;20673;48.980;8.138;2022-07-10T09:19:25;100906.30;;;22.15
34023;BMP280;20673;48.980;8.138;2022-07-10T09:24:35;100906.87;;;21.94
34023;BMP280;20673;48.980;8.138;2022-07-10T09:27:02;100907.40;;;21.76
34023;BMP280;20673;48.980;8.138;2022-07-10T09:29:43;100911.42;;;21.79
34023;BMP280;20673;48.980;8.138;2022-07-10T09:32:02;100909.64;;;22.09
34023;BMP280;20673;48.980;8.138;2022-07-10T09:37:29;100907.76;;;22.49
34023;BMP280;20673;48.980;8.138;2022-07-10T09:39:58;100908.28;;;23.28
34023;BMP280;20673;48.980;8.138;2022-07-10T09:42:35;100910.29;;;23.22
34023;BMP280;20673;48.980;8.138;2022-07-10T09:45:14;100908.76;;;22.91
34023;BMP280;20673;48.980;8.138;2022-07-10T09:47:53;100918.08;;;22.93
34023;BMP280;20673;48.980;8.138;2022-07-10T09:50:36;100914.69;;;23.29
34023;BMP280;20673;48.980;8.138;2022-07-10T09:53:08;100918.81;;;23.60
34023;BMP280;20673;48.980;8.138;2022-07-10T09:55:36;100919.46;;;23.73
34023;BMP280;20673;48.980;8.138;2022-07-10T09:58:05;100918.34;;;23.67
34023;BMP280;20673;48.980;8.138;2022-07-10T10:00:40;100910.80;;;23.44
34023;BMP280;20673;48.980;8.138;2022-07-10T10:03:08;100901.04;;;23.38
34023;BMP280;20673;48.980;8.138;2022-07-10T10:05:39;100905.23;;;23.46
34023;BMP280;20673;48.980;8.138;2022-07-10T10:08:12;100903.74;;;23.56
34023;BMP280;20673;48.980;8.138;2022-07-10T10:10:50;100896.47;;;23.64
34023;BMP280;20673;48.980;8.138;2022-07-10T10:13:23;100904.39;;;24.18
34023;BMP280;20673;48.980;8.138;2022-07-10T10:15:51;100896.81;;;23.96
34023;BMP280;20673;48.980;8.138;2022-07-10T10:18:24;100890.79;;;24.51
34023;BMP280;20673;48.980;8.138;2022-07-10T10:20:54;100889.00;;;24.32
34023;BMP280;20673;48.980;8.138;2022-07-10T10:23:24;100895.45;;;24.21
34023;BMP280;20673;48.980;8.138;2022-07-10T10:25:53;100897.47;;;23.94
34023;BMP280;20673;48.980;8.138;2022-07-10T10:28:24;100899.41;;;24.28
34023;BMP280;20673;48.980;8.138;2022-07-10T10:30:55;100889.36;;;24.37
34023;BMP280;20673;48.980;8.138;2022-07-10T10:33:41;100885.00;;;24.47
34023;BMP280;20673;48.980;8.138;2022-07-10T10:36:10;100880.97;;;24.66
34023;BMP280;20673;48.980;8.138;2022-07-10T10:41:36;100873.29;;;24.43
34023;BMP280;20673;48.980;8.138;2022-07-10T10:49:25;100868.12;;;24.78
34023;BMP280;20673;48.980;8.138;2022-07-10T10:52:04;100867.84;;;25.21
34023;BMP280;20673;48.980;8.138;2022-07-10T10:57:37;100873.37;;;25.71
34023;BMP280;20673;48.980;8.138;2022-07-10T11:00:09;100885.13;;;25.42
34023;BMP280;20673;48.980;8.138;2022-07-10T11:02:38;100878.64;;;25.99
34023;BMP280;20673;48.980;8.138;2022-07-10T11:08:01;100867.58;;;25.56
34023;BMP280;20673;48.980;8.138;2022-07-10T11:10:44;100865.97;;;24.98
34023;BMP280;20673;48.980;8.138;2022-07-10T11:13:16;100867.36;;;25.49
34023;BMP280;20673;48.980;8.138;2022-07-10T11:15:48;100859.48;;;25.63
34023;BMP280;20673;48.980;8.138;2022-07-10T11:18:19;100866.14;;;25.99
34023;BMP280;20673;48.980;8.138;2022-07-10T11:20:50;100858.13;;;25.72
34023;BMP280;20673;48.980;8.138;2022-07-10T11:29:22;100860.48;;;25.66
34023;BMP280;20673;48.980;8.138;2022-07-10T11:31:53;100859.10;;;26.10
34023;BMP280;20673;48.980;8.138;2022-07-10T11:34:21;100854.40;;;25.73
34023;BMP280;20673;48.980;8.138;2022-07-10T11:36:48;100860.25;;;26.07
34023;BMP280;20673;48.980;8.138;2022-07-10T11:39:14;100855.78;;;25.81
34023;BMP280;20673;48.980;8.138;2022-07-10T11:41:45;100857.23;;;25.40
34023;BMP280;20673;48.980;8.138;2022-07-10T11:44:17;100848.36;;;25.59
34023;BMP280;20673;48.980;8.138;2022-07-10T11:46:44;100847.00;;;25.59
34023;BMP280;20673;48.980;8.138;2022-07-10T11:49:12;100843.17;;;25.54
34023;BMP280;20673;48.980;8.138;2022-07-10T11:51:41;100845.97;;;25.97
34023;BMP280;20673;48.980;8.138;2022-07-10T11:54:11;100854.22;;;25.83
34023;BMP280;20673;48.980;8.138;2022-07-10T11:56:40;100847.37;;;26.32
34023;BMP280;20673;48.980;8.138;2022-07-10T11:59:12;100844.20;;;26.46
34023;BMP280;20673;48.980;8.138;2022-07-10T12:01:48;100837.75;;;26.85
34023;BMP280;20673;48.980;8.138;2022-07-10T12:04:21;100832.08;;;26.42
34023;BMP280;20673;48.980;8.138;2022-07-10T12:06:53;100832.96;;;25.19
34023;BMP280;20673;48.980;8.138;2022-07-10T12:09:21;100843.92;;;25.52
34023;BMP280;20673;48.980;8.138;2022-07-10T12:12:06;100850.25;;;26.58
34023;BMP280;20673;48.980;8.138;2022-07-10T12:14:35;100837.25;;;26.41
34023;BMP280;20673;48.980;8.138;2022-07-10T12:17:11;100837.92;;;26.98
34023;BMP280;20673;48.980;8.138;2022-07-10T12:19:39;100835.40;;;27.32
34023;BMP280;20673;48.980;8.138;2022-07-10T12:22:06;100836.42;;;27.35
34023;BMP280;20673;48.980;8.138;2022-07-10T12:24:34;100830.86;;;27.63
34023;BMP280;20673;48.980;8.138;2022-07-10T12:27:00;100828.70;;;27.20
34023;BMP280;20673;48.980;8.138;2022-07-10T12:29:29;100814.34;;;27.17
34023;BMP280;20673;48.980;8.138;2022-07-10T12:31:58;100814.92;;;25.77
34023;BMP280;20673;48.980;8.138;2022-07-10T12:34:38;100819.20;;;25.61
34023;BMP280;20673;48.980;8.138;2022-07-10T12:37:16;100825.00;;;26.38
34023;BMP280;20673;48.980;8.138;2022-07-10T12:39:53;100819.40;;;26.57
34023;BMP280;20673;48.980;8.138;2022-07-10T12:42:31;100825.56;;;27.36
34023;BMP280;20673;48.980;8.138;2022-07-10T12:45:14;100828.58;;;27.96
34023;BMP280;20673;48.980;8.138;2022-07-10T12:47:46;100814.79;;;27.67
34023;BMP280;20673;48.980;8.138;2022-07-10T12:50:14;100825.50;;;26.78
34023;BMP280;20673;48.980;8.138;2022-07-10T12:52:43;100823.86;;;27.16
34023;BMP280;20673;48.980;8.138;2022-07-10T12:55:21;100820.73;;;27.72
34023;BMP280;20673;48.980;8.138;2022-07-10T12:58:00;100816.40;;;27.67
34023;BMP280;20673;48.980;8.138;2022-07-10T13:00:31;100817.15;;;27.97
34023;BMP280;20673;48.980;8.138;2022-07-10T13:03:05;100815.65;;;27.91
34023;BMP280;20673;48.980;8.138;2022-07-10T13:05:41;100820.22;;;27.94
34023;BMP280;20673;48.980;8.138;2022-07-10T13:08:18;100813.40;;;28.45
34023;BMP280;20673;48.980;8.138;2022-07-10T13:10:51;100814.39;;;28.53
34023;BMP280;20673;48.980;8.138;2022-07-10T13:13:18;100811.86;;;28.34
34023;BMP280;20673;48.980;8.138;2022-07-10T13:15:46;100815.75;;;28.97
34023;BMP280;20673;48.980;8.138;2022-07-10T13:18:17;100804.98;;;28.15
34023;BMP280;20673;48.980;8.138;2022-07-10T13:20:49;100798.51;;;28.23
34023;BMP280;20673;48.980;8.138;2022-07-10T13:23:17;100797.17;;;28.12
34023;BMP280;20673;48.980;8.138;2022-07-10T13:25:45;100808.97;;;28.49
34023;BMP280;20673;48.980;8.138;2022-07-10T13:28:11;100802.18;;;28.35
34023;BMP280;20673;48.980;8.138;2022-07-10T13:30:38;100800.83;;;28.36
34023;BMP280;20673;48.980;8.138;2022-07-10T13:33:04;100801.40;;;28.59
34023;BMP280;20673;48.980;8.138;2022-07-10T13:35:32;100808.33;;;29.11
34023;BMP280;20673;48.980;8.138;2022-07-10T13:38:01;100805.85;;;28.90
34023;BMP280;20673;48.980;8.138;2022-07-10T13:40:32;100800.18;;;29.14
34023;BMP280;20673;48.980;8.138;2022-07-10T13:42:59;100796.06;;;27.54
34023;BMP280;20673;48.980;8.138;2022-07-10T13:45:26;100802.16;;;28.48
34023;BMP280;20673;48.980;8.138;2022-07-10T13:47:56;100809.86;;;28.99
34023;BMP280;20673;48.980;8.138;2022-07-10T13:50:22;100810.93;;;29.10
34023;BMP280;20673;48.980;8.138;2022-07-10T13:52:49;100801.44;;;27.92
34023;BMP280;20673;48.980;8.138;2022-07-10T13:55:16;100799.36;;;26.88
34023;BMP280;20673;48.980;8.138;2022-07-10T13:57:43;100808.15;;;26.64
34023;BMP280;20673;48.980;8.138;2022-07-10T14:00:10;100802.78;;;27.63
34023;BMP280;20673;48.980;8.138;2022-07-10T14:02:37;100787.87;;;28.12
34023;BMP280;20673;48.980;8.138;2022-07-10T14:05:05;100786.33;;;28.50
34023;BMP280;20673;48.980;8.138;2022-07-10T14:07:31;100787.01;;;28.37
34023;BMP280;20673;48.980;8.138;2022-07-10T14:09:58;100787.17;;;28.24
34023;BMP280;20673;48.980;8.138;2022-07-10T14:12:24;100785.18;;;29.05
34023;BMP280;20673;48.980;8.138;2022-07-10T14:14:51;100788.40;;;28.58
34023;BMP280;20673;48.980;8.138;2022-07-10T14:17:17;100793.50;;;29.36
34023;BMP280;20673;48.980;8.138;2022-07-10T14:19:43;100773.50;;;28.98
34023;BMP280;20673;48.980;8.138;2022-07-10T14:22:10;100783.33;;;28.19
34023;BMP280;20673;48.980;8.138;2022-07-10T14:24:36;100776.30;;;27.94
34023;BMP280;20673;48.980;8.138;2022-07-10T14:27:03;100788.87;;;27.02
34023;BMP280;20673;48.980;8.138;2022-07-10T14:29:30;100785.63;;;26.60
34023;BMP280;20673;48.980;8.138;2022-07-10T14:31:56;100786.00;;;26.70